createdAt,value
2019-03-27T00:01:03.923Z,98086.77
2019-03-27T00:04:01.058Z,98091.97
2019-03-27T00:06:58.181Z,98091.05
2019-03-27T00:09:54.336Z,98094.66
2019-03-27T00:12:51.863Z,98091.83
2019-03-27T00:15:47.824Z,98093.10
2019-03-27T00:18:45.009Z,98095.14
2019-03-27T00:21:41.100Z,98092.38
2019-03-27T00:24:38.453Z,98091.04
2019-03-27T00:27:35.922Z,98090.58
2019-03-27T00:30:32.350Z,98085.86
2019-03-27T00:33:37.597Z,98089.55
2019-03-27T00:36:33.716Z,98083.81
2019-03-27T00:39:30.799Z,98081.77
2019-03-27T00:42:27.978Z,98083.03
2019-03-27T00:45:27.255Z,98081.40
2019-03-27T00:48:23.304Z,98081.62
2019-03-27T00:51:19.585Z,98084.28
2019-03-27T00:54:17.525Z,98081.31
2019-03-27T00:57:14.640Z,98066.94
2019-03-27T01:00:11.879Z,98076.91
2019-03-27T01:03:09.002Z,98077.21
2019-03-27T01:06:06.383Z,98075.95
2019-03-27T01:09:05.980Z,98077.06
2019-03-27T01:12:03.334Z,98067.63
2019-03-27T01:15:00.390Z,98067.63
2019-03-27T01:17:56.449Z,98070.64
2019-03-27T01:20:53.577Z,98072.35
2019-03-27T01:23:50.517Z,98070.71
2019-03-27T01:26:47.878Z,98067.94
2019-03-27T01:29:43.906Z,98068.73
2019-03-27T01:32:41.226Z,98065.59
2019-03-27T01:35:38.314Z,98071.06
2019-03-27T01:38:34.444Z,98071.06
2019-03-27T01:41:31.766Z,98071.22
2019-03-27T01:44:28.876Z,98065.44
2019-03-27T01:47:26.099Z,98071.41
2019-03-27T01:50:21.443Z,98065.52
2019-03-27T01:53:19.412Z,98064.64
2019-03-27T01:56:17.187Z,98063.54
2019-03-27T01:59:14.619Z,98065.83
2019-03-27T02:02:11.689Z,98070.13
2019-03-27T02:05:09.028Z,98062.97
2019-03-27T02:08:05.848Z,98066.20
2019-03-27T02:11:01.745Z,98062.44
2019-03-27T02:13:59.892Z,98057.49
2019-03-27T02:16:56.235Z,98059.31
2019-03-27T02:19:52.073Z,98062.59
2019-03-27T02:22:49.596Z,98065.59
2019-03-27T02:25:45.633Z,98065.71
2019-03-27T02:28:43.009Z,98066.43
2019-03-27T02:31:39.120Z,98063.84
2019-03-27T02:34:36.277Z,98060.55
2019-03-27T02:37:32.422Z,98068.87
2019-03-27T02:40:29.663Z,98073.89
2019-03-27T02:43:25.896Z,98063.97
2019-03-27T02:46:24.883Z,98066.48
2019-03-27T02:49:20.590Z,98070.69
2019-03-27T02:52:16.948Z,98075.71
2019-03-27T02:55:15.272Z,98078.22
2019-03-27T02:58:12.119Z,98075.56
2019-03-27T03:01:10.204Z,98081.48
2019-03-27T03:04:08.278Z,98076.39
2019-03-27T03:07:04.938Z,98077.41
2019-03-27T03:10:01.209Z,98074.91
2019-03-27T03:12:57.817Z,98070.19
2019-03-27T03:15:55.722Z,98069.80
2019-03-27T03:18:53.137Z,98072.39
2019-03-27T03:21:50.218Z,98073.80
2019-03-27T03:24:47.269Z,98071.59
2019-03-27T03:27:44.532Z,98074.70
2019-03-27T03:30:40.185Z,98074.48
2019-03-27T03:33:37.201Z,98072.84
2019-03-27T03:36:35.422Z,98070.41
2019-03-27T03:39:31.145Z,98078.97
2019-03-27T03:42:27.885Z,98077.25
2019-03-27T03:45:24.526Z,98084.67
2019-03-27T03:48:21.438Z,98087.59
2019-03-27T03:51:17.498Z,98082.08
2019-03-27T03:54:14.713Z,98088.50
2019-03-27T03:57:11.776Z,98080.09
2019-03-27T04:00:08.010Z,98085.98
2019-03-27T04:03:06.149Z,98089.91
2019-03-27T04:06:04.269Z,98092.41
2019-03-27T04:09:01.418Z,98088.66
2019-03-27T04:11:56.937Z,98095.12
2019-03-27T04:14:53.992Z,98089.61
2019-03-27T04:17:50.090Z,98093.86
2019-03-27T04:20:47.447Z,98093.56
2019-03-27T04:23:43.776Z,98097.43
2019-03-27T04:26:41.842Z,98104.42
2019-03-27T04:29:37.726Z,98095.87
2019-03-27T04:32:34.739Z,98099.72
2019-03-27T04:35:32.065Z,98097.48
2019-03-27T04:38:28.189Z,98094.02
2019-03-27T04:41:25.368Z,98096.53
2019-03-27T04:44:21.701Z,98097.92
2019-03-27T04:47:31.516Z,98106.21
2019-03-27T04:50:15.742Z,98106.70
2019-03-27T04:53:12.446Z,98122.14
2019-03-27T04:56:08.541Z,98112.78
2019-03-27T04:59:06.338Z,98118.07
2019-03-27T05:02:02.671Z,98110.70
2019-03-27T05:04:59.912Z,98115.56
2019-03-27T05:07:57.153Z,98119.02
2019-03-27T05:10:53.096Z,98122.41
2019-03-27T05:13:50.242Z,98116.44
2019-03-27T05:16:47.318Z,98127.58
2019-03-27T05:19:44.059Z,98130.09
2019-03-27T05:22:41.222Z,98139.17
2019-03-27T05:25:37.032Z,98137.78
2019-03-27T05:28:34.187Z,98140.28
2019-03-27T05:31:31.016Z,98143.75
2019-03-27T05:34:28.391Z,98146.26
2019-03-27T05:37:25.539Z,98143.75
2019-03-27T05:40:22.214Z,98149.87
2019-03-27T05:43:19.334Z,98140.45
2019-03-27T05:46:17.218Z,98147.05
2019-03-27T05:49:14.567Z,98151.88
2019-03-27T05:52:10.480Z,98154.88
2019-03-27T05:55:07.650Z,98156.75
2019-03-27T05:58:05.983Z,98158.01
2019-03-27T06:01:03.035Z,98160.52
2019-03-27T06:04:00.105Z,98161.88
2019-03-27T06:07:00.156Z,98164.77
2019-03-27T06:09:56.238Z,98166.68
2019-03-27T06:12:53.692Z,98167.64
2019-03-27T06:15:49.997Z,98175.16
2019-03-27T06:18:47.343Z,98175.32
2019-03-27T06:21:43.735Z,98176.44
2019-03-27T06:24:40.948Z,98178.34
2019-03-27T06:27:37.900Z,98174.08
2019-03-27T06:30:34.927Z,98176.87
2019-03-27T06:33:31.870Z,98176.34
2019-03-27T06:36:27.940Z,98174.94
2019-03-27T06:39:25.369Z,98178.21
2019-03-27T06:42:26.686Z,98177.15
2019-03-27T06:45:24.065Z,98180.46
2019-03-27T06:48:26.347Z,98174.04
2019-03-27T06:51:18.475Z,98175.94
2019-03-27T06:54:14.584Z,98179.56
2019-03-27T06:57:12.679Z,98179.09
2019-03-27T07:00:08.508Z,98177.69
2019-03-27T07:03:05.228Z,98189.30
2019-03-27T07:06:02.533Z,98186.98
2019-03-27T07:09:01.607Z,98186.83
2019-03-27T07:11:58.870Z,98186.83
2019-03-27T07:14:56.230Z,98186.85
2019-03-27T07:17:54.544Z,98187.72
2019-03-27T07:20:52.850Z,98187.98
2019-03-27T07:23:48.700Z,98197.56
2019-03-27T07:26:45.794Z,98201.25
2019-03-27T07:29:42.026Z,98195.75
2019-03-27T07:32:39.209Z,98198.02
2019-03-27T07:35:35.467Z,98198.02
2019-03-27T07:38:32.910Z,98202.41
2019-03-27T07:41:30.158Z,98204.31
2019-03-27T07:44:26.004Z,98201.31
2019-03-27T07:47:23.002Z,98207.61
2019-03-27T07:50:20.143Z,98217.20
2019-03-27T07:53:16.385Z,98215.70
2019-03-27T07:56:13.551Z,98217.66
2019-03-27T07:59:10.929Z,98218.81
2019-03-27T08:02:08.459Z,98219.23
2019-03-27T08:05:04.321Z,98220.00
2019-03-27T08:08:02.382Z,98213.50
2019-03-27T08:10:59.768Z,98215.20
2019-03-27T08:13:57.112Z,98214.11
2019-03-27T08:16:53.448Z,98216.09
2019-03-27T08:19:51.005Z,98213.69
2019-03-27T08:22:49.402Z,98216.07
2019-03-27T08:25:44.868Z,98218.86
2019-03-27T08:28:42.764Z,98214.76
2019-03-27T08:31:38.586Z,98220.73
2019-03-27T08:34:35.509Z,98216.00
2019-03-27T08:37:31.870Z,98213.80
2019-03-27T08:40:30.013Z,98224.23
2019-03-27T08:43:28.078Z,98224.73
2019-03-27T08:46:24.148Z,98214.27
2019-03-27T08:49:22.699Z,98218.17
2019-03-27T08:52:18.557Z,98221.38
2019-03-27T08:55:15.765Z,98221.73
2019-03-27T08:58:11.986Z,98222.76
2019-03-27T09:01:11.637Z,98221.58
2019-03-27T09:04:07.586Z,98223.58
2019-03-27T09:07:04.369Z,98219.59
2019-03-27T09:10:02.526Z,98225.81
2019-03-27T09:12:58.909Z,98226.09
2019-03-27T09:15:55.184Z,98228.74
2019-03-27T09:18:52.419Z,98227.00
2019-03-27T09:21:49.442Z,98235.09
2019-03-27T09:24:46.640Z,98232.34
2019-03-27T09:27:41.828Z,98227.67
2019-03-27T09:30:39.514Z,98229.64
2019-03-27T09:33:36.555Z,98238.88
2019-03-27T09:36:32.544Z,98239.20
2019-03-27T09:39:32.215Z,98244.37
2019-03-27T09:42:28.572Z,98239.20
2019-03-27T09:45:25.806Z,98241.13
2019-03-27T09:48:21.912Z,98240.67
2019-03-27T09:51:19.663Z,98243.26
2019-03-27T09:54:16.072Z,98237.72
2019-03-27T09:57:13.130Z,98242.48
2019-03-27T10:00:11.176Z,98239.73
2019-03-27T10:03:08.087Z,98242.98
2019-03-27T10:06:05.223Z,98245.42
2019-03-27T10:09:02.292Z,98245.66
2019-03-27T10:11:59.631Z,98239.00
2019-03-27T10:14:57.031Z,98241.97
2019-03-27T10:17:53.984Z,98239.34
2019-03-27T10:20:51.578Z,98241.21
2019-03-27T10:23:47.874Z,98238.91
2019-03-27T10:26:44.854Z,98248.03
2019-03-27T10:29:40.456Z,98250.11
2019-03-27T10:32:37.569Z,98250.30
2019-03-27T10:35:33.806Z,98251.50
2019-03-27T10:38:31.190Z,98260.06
2019-03-27T10:41:29.284Z,98259.84
2019-03-27T10:44:25.551Z,98258.69
2019-03-27T10:47:22.876Z,98258.09
2019-03-27T10:50:18.956Z,98259.06
2019-03-27T10:53:16.338Z,98261.74
2019-03-27T10:56:12.228Z,98252.03
2019-03-27T10:59:09.625Z,98249.53
2019-03-27T11:02:06.774Z,98254.72
2019-03-27T11:05:04.235Z,98257.34
2019-03-27T11:08:00.316Z,98257.02
2019-03-27T11:10:58.385Z,98250.47
2019-03-27T11:13:55.546Z,98256.75
2019-03-27T11:16:53.753Z,98253.02
2019-03-27T11:19:50.485Z,98244.84
2019-03-27T11:22:45.932Z,98252.25
2019-03-27T11:25:43.036Z,98255.73
2019-03-27T11:28:40.301Z,98249.75
2019-03-27T11:31:39.684Z,98250.71
2019-03-27T11:34:35.632Z,98246.44
2019-03-27T11:37:32.710Z,98244.48
2019-03-27T11:40:28.802Z,98244.48
2019-03-27T11:43:25.840Z,98240.60
2019-03-27T11:46:23.109Z,98239.08
2019-03-27T11:49:19.204Z,98245.45
2019-03-27T11:52:16.815Z,98237.86
2019-03-27T11:55:12.717Z,98235.73
2019-03-27T11:58:10.084Z,98227.30
2019-03-27T12:01:06.313Z,98233.88
2019-03-27T12:04:03.409Z,98231.95
2019-03-27T12:06:59.717Z,98237.59
2019-03-27T12:09:59.022Z,98233.85
2019-03-27T12:12:55.120Z,98226.39
2019-03-27T12:15:59.877Z,98229.41
2019-03-27T12:18:58.060Z,98220.92
2019-03-27T12:21:56.096Z,98210.90
2019-03-27T12:24:53.183Z,98209.70
2019-03-27T12:27:50.346Z,98209.42
2019-03-27T12:30:48.919Z,98207.00
2019-03-27T12:33:45.925Z,98203.05
2019-03-27T12:36:42.871Z,98200.75
2019-03-27T12:39:40.922Z,98198.08
2019-03-27T12:42:37.757Z,98203.27
2019-03-27T12:45:35.064Z,98196.29
2019-03-27T12:48:31.073Z,98198.58
2019-03-27T12:51:28.431Z,98204.63
2019-03-27T12:54:24.437Z,98205.52
2019-03-27T12:57:21.482Z,98200.97
2019-03-27T13:00:17.153Z,98205.73
2019-03-27T13:03:14.789Z,98205.83
2019-03-27T13:06:13.102Z,98207.45
2019-03-27T13:09:08.921Z,98207.66
2019-03-27T13:12:08.209Z,98209.64
2019-03-27T13:15:04.252Z,98208.34
2019-03-27T13:18:01.131Z,98202.89
2019-03-27T13:20:58.288Z,98198.31
2019-03-27T13:23:54.552Z,98197.04
2019-03-27T13:26:51.802Z,98196.47
2019-03-27T13:29:48.852Z,98193.89
2019-03-27T13:32:45.889Z,98182.98
2019-03-27T13:35:43.026Z,98182.98
2019-03-27T13:38:39.048Z,98198.31
2019-03-27T13:41:36.093Z,98198.00
2019-03-27T13:44:37.358Z,98198.81
2019-03-27T13:47:31.232Z,98195.37
2019-03-27T13:50:27.392Z,98199.61
2019-03-27T13:53:24.647Z,98202.87
2019-03-27T13:56:20.181Z,98195.97
2019-03-27T13:59:17.453Z,98195.97
2019-03-27T14:02:13.152Z,98192.30
2019-03-27T14:05:10.416Z,98193.02
2019-03-27T14:08:06.592Z,98190.93
2019-03-27T14:11:04.692Z,98202.33
2019-03-27T14:14:10.690Z,98193.34
2019-03-27T14:16:57.470Z,98192.84
2019-03-27T14:19:52.870Z,98194.02
2019-03-27T14:22:50.067Z,98193.72
2019-03-27T14:25:47.404Z,98193.15
2019-03-27T14:28:43.537Z,98189.48
2019-03-27T14:31:40.779Z,98186.06
2019-03-27T14:34:36.847Z,98191.31
2019-03-27T14:37:35.281Z,98194.67
2019-03-27T14:40:31.355Z,98193.53
2019-03-27T14:43:28.670Z,98189.98
2019-03-27T14:46:25.407Z,98191.77
2019-03-27T14:49:22.571Z,98192.22
2019-03-27T14:52:19.695Z,98189.64
2019-03-27T14:55:15.847Z,98185.84
2019-03-27T14:58:13.726Z,98190.91
2019-03-27T15:01:11.053Z,98185.02
2019-03-27T15:04:09.270Z,98191.92
2019-03-27T15:07:05.418Z,98190.91
2019-03-27T15:10:02.476Z,98185.84
2019-03-27T15:12:59.401Z,98191.00
2019-03-27T15:15:57.330Z,98194.41
2019-03-27T15:18:52.704Z,98192.61
2019-03-27T15:21:49.227Z,98194.70
2019-03-27T15:24:47.268Z,98192.38
2019-03-27T15:27:44.386Z,98198.28
2019-03-27T15:30:41.681Z,98193.02
2019-03-27T15:33:38.942Z,98192.80
2019-03-27T15:36:35.901Z,98199.38
2019-03-27T15:39:32.217Z,98194.91
2019-03-27T15:42:29.394Z,98194.67
2019-03-27T15:45:27.669Z,98201.19
2019-03-27T15:48:22.670Z,98201.48
2019-03-27T15:51:19.830Z,98197.94
2019-03-27T15:54:15.873Z,98199.89
2019-03-27T15:57:14.316Z,98195.98
2019-03-27T16:00:10.424Z,98199.70
2019-03-27T16:03:07.476Z,98192.88
2019-03-27T16:06:04.584Z,98199.30
2019-03-27T16:09:01.969Z,98199.55
2019-03-27T16:11:59.089Z,98199.88
2019-03-27T16:14:56.805Z,98196.43
2019-03-27T16:17:53.926Z,98197.20
2019-03-27T16:20:49.988Z,98193.05
2019-03-27T16:23:47.040Z,98193.05
2019-03-27T16:26:44.106Z,98195.05
2019-03-27T16:29:42.315Z,98200.59
2019-03-27T16:32:38.073Z,98201.71
2019-03-27T16:35:36.043Z,98208.85
2019-03-27T16:38:33.050Z,98206.33
2019-03-27T16:41:28.437Z,98206.66
2019-03-27T16:44:26.487Z,98206.66
2019-03-27T16:47:22.679Z,98212.06
2019-03-27T16:50:19.819Z,98213.27
2019-03-27T16:53:16.111Z,98214.81
2019-03-27T16:56:14.663Z,98224.34
2019-03-27T16:59:10.664Z,98219.63
2019-03-27T17:02:07.902Z,98216.84
2019-03-27T17:05:05.081Z,98220.91
2019-03-27T17:08:01.314Z,98224.17
2019-03-27T17:10:59.138Z,98219.78
2019-03-27T17:13:55.416Z,98218.75
2019-03-27T17:16:53.110Z,98227.93
2019-03-27T17:19:49.231Z,98226.55
2019-03-27T17:22:46.347Z,98240.28
2019-03-27T17:25:43.458Z,98246.05
2019-03-27T17:28:40.965Z,98251.00
2019-03-27T17:31:38.123Z,98241.55
2019-03-27T17:34:34.155Z,98252.33
2019-03-27T17:37:33.960Z,98258.13
2019-03-27T17:40:30.368Z,98252.88
2019-03-27T17:43:27.441Z,98260.78
2019-03-27T17:46:24.492Z,98263.58
2019-03-27T17:49:21.881Z,98275.22
2019-03-27T17:52:17.839Z,98275.09
2019-03-27T17:55:14.924Z,98269.11
2019-03-27T17:58:11.849Z,98278.28
2019-03-27T18:01:09.334Z,98278.28
2019-03-27T18:04:07.769Z,98282.07
2019-03-27T18:07:05.083Z,98282.34
2019-03-27T18:10:02.371Z,98277.17
2019-03-27T18:13:03.141Z,98276.95
2019-03-27T18:16:00.458Z,98281.07
2019-03-27T18:19:01.307Z,98277.64
2019-03-27T18:22:07.524Z,98286.00
2019-03-27T18:24:59.817Z,98281.76
2019-03-27T18:27:58.609Z,98282.54
2019-03-27T18:30:55.219Z,98288.40
2019-03-27T18:33:52.458Z,98286.98
2019-03-27T18:36:49.003Z,98288.66
2019-03-27T18:39:45.475Z,98291.13
2019-03-27T18:42:42.932Z,98288.93
2019-03-27T18:45:40.225Z,98296.02
2019-03-27T18:48:38.560Z,98300.62
2019-03-27T18:51:36.035Z,98305.98
2019-03-27T18:54:33.818Z,98308.84
2019-03-27T18:57:36.466Z,98312.95
2019-03-27T19:00:32.978Z,98319.91
2019-03-27T19:03:36.215Z,98317.20
2019-03-27T19:06:27.518Z,98319.17
2019-03-27T19:09:24.745Z,98315.74
2019-03-27T19:12:23.342Z,98322.38
2019-03-27T19:15:19.303Z,98327.42
2019-03-27T19:18:16.833Z,98318.30
2019-03-27T19:21:17.342Z,98323.02
2019-03-27T19:24:16.817Z,98327.20
2019-03-27T19:27:10.819Z,98329.66
2019-03-27T19:30:08.245Z,98330.85
2019-03-27T19:33:06.799Z,98331.63
2019-03-27T19:36:02.998Z,98335.41
2019-03-27T19:39:05.091Z,98335.34
2019-03-27T19:42:02.728Z,98339.94
2019-03-27T19:45:03.954Z,98340.27
2019-03-27T19:48:09.447Z,98340.72
2019-03-27T19:51:06.578Z,98340.13
2019-03-27T19:54:06.824Z,98349.41
2019-03-27T19:57:05.608Z,98340.13
2019-03-27T20:00:03.069Z,98349.41
2019-03-27T20:03:06.906Z,98350.67
2019-03-27T20:06:16.261Z,98354.78
2019-03-27T20:09:22.281Z,98359.76
2019-03-27T20:12:18.324Z,98354.16
2019-03-27T20:15:41.974Z,98354.91
2019-03-27T20:18:34.753Z,98362.34
2019-03-27T20:21:32.231Z,98365.56
2019-03-27T20:24:40.378Z,98369.28
2019-03-27T20:27:25.665Z,98370.48
2019-03-27T20:30:26.981Z,98372.05
2019-03-27T20:33:29.297Z,98367.02
2019-03-27T20:36:27.720Z,98364.48
2019-03-27T20:39:24.354Z,98369.53
2019-03-27T20:42:20.828Z,98372.05
2019-03-27T20:45:22.815Z,98366.07
2019-03-27T20:48:19.794Z,98362.74
2019-03-27T20:51:24.558Z,98364.33
2019-03-27T20:54:23.739Z,98365.13
2019-03-27T20:57:20.916Z,98361.67
2019-03-27T21:00:18.321Z,98361.98
2019-03-27T21:03:15.899Z,98369.55
2019-03-27T21:06:12.413Z,98360.59
2019-03-27T21:09:10.772Z,98364.76
2019-03-27T21:12:12.994Z,98360.77
2019-03-27T21:15:09.329Z,98364.32
2019-03-27T21:18:06.785Z,98362.22
2019-03-27T21:21:04.148Z,98363.48
2019-03-27T21:24:02.947Z,98356.69
2019-03-27T21:26:59.584Z,98358.27
2019-03-27T21:29:58.904Z,98357.33
2019-03-27T21:32:55.483Z,98358.94
2019-03-27T21:35:59.416Z,98357.19
2019-03-27T21:38:56.077Z,98360.52
2019-03-27T21:41:53.370Z,98361.28
2019-03-27T21:44:50.655Z,98353.59
2019-03-27T21:47:47.094Z,98354.84
2019-03-27T21:50:45.465Z,98362.41
2019-03-27T21:53:42.835Z,98360.66
2019-03-27T21:56:39.241Z,98366.96
2019-03-27T21:59:37.741Z,98369.48
2019-03-27T22:02:34.103Z,98373.61
2019-03-27T22:05:32.127Z,98372.73
2019-03-27T22:08:28.299Z,98374.38
2019-03-27T22:11:26.751Z,98375.95
2019-03-27T22:14:23.018Z,98371.72
2019-03-27T22:17:20.416Z,98376.63
2019-03-27T22:20:18.609Z,98373.93
2019-03-27T22:23:15.006Z,98379.28
2019-03-27T22:26:11.632Z,98375.82
2019-03-27T22:29:07.885Z,98379.14
2019-03-27T22:32:06.934Z,98375.75
2019-03-27T22:35:02.328Z,98370.95
2019-03-27T22:38:00.166Z,98381.20
2019-03-27T22:40:56.270Z,98382.92
2019-03-27T22:43:53.527Z,98387.58
2019-03-27T22:46:50.696Z,98395.14
2019-03-27T22:49:47.032Z,98393.00
2019-03-27T22:52:44.415Z,98387.02
2019-03-27T22:55:49.910Z,98392.05
2019-03-27T22:58:37.968Z,98393.17
2019-03-27T23:01:36.258Z,98385.05
2019-03-27T23:04:33.434Z,98387.50
2019-03-27T23:07:30.673Z,98384.04
2019-03-27T23:10:27.715Z,98383.89
2019-03-27T23:13:26.309Z,98383.89
2019-03-27T23:16:22.436Z,98387.19
2019-03-27T23:19:19.486Z,98380.89
2019-03-27T23:22:16.640Z,98385.85
2019-03-27T23:25:14.625Z,98382.39
2019-03-27T23:28:11.245Z,98382.31
2019-03-27T23:31:08.883Z,98383.58
2019-03-27T23:34:06.083Z,98385.25
2019-03-27T23:37:02.561Z,98384.77
2019-03-27T23:40:00.468Z,98376.33
2019-03-27T23:42:57.444Z,98377.59
2019-03-27T23:45:54.790Z,98369.13
2019-03-27T23:48:52.151Z,98372.91
2019-03-27T23:51:50.434Z,98373.22
2019-03-27T23:54:47.765Z,98373.04
2019-03-27T23:57:43.623Z,98378.39
